createdAt,value
2023-01-04T00:01:36.680Z,2.10
2023-01-04T00:04:04.648Z,2.20
2023-01-04T00:06:33.275Z,2.30
2023-01-04T00:09:01.726Z,2.20
2023-01-04T00:11:29.855Z,2.40
2023-01-04T00:13:59.293Z,2.20
2023-01-04T00:16:28.710Z,2.20
2023-01-04T00:18:58.750Z,2.30
2023-01-04T00:21:28.195Z,2.20
2023-01-04T00:23:59.008Z,2.30
2023-01-04T00:26:29.584Z,2.40
2023-01-04T00:28:59.961Z,2.10
2023-01-04T00:31:29.434Z,2.20
2023-01-04T00:34:00.439Z,2.10
2023-01-04T00:36:29.772Z,2.30
2023-01-04T00:39:09.092Z,2.30
2023-01-04T00:44:26.638Z,2.10
2023-01-04T00:46:54.726Z,2.10
2023-01-04T00:49:24.805Z,2.10
2023-01-04T00:51:52.907Z,2.10
2023-01-04T00:54:22.219Z,2.10
2023-01-04T00:56:50.906Z,2.00
2023-01-04T00:59:21.372Z,2.00
2023-01-04T01:01:49.348Z,2.10
2023-01-04T01:04:19.600Z,2.30
2023-01-04T01:06:49.806Z,2.10
2023-01-04T01:09:18.903Z,2.20
2023-01-04T01:11:46.938Z,2.20
2023-01-04T01:14:18.370Z,2.10
2023-01-04T01:16:56.677Z,1.90
2023-01-04T01:19:26.114Z,2.10
2023-01-04T01:21:57.048Z,2.10
2023-01-04T01:24:25.142Z,2.40
2023-01-04T01:26:53.319Z,2.30
2023-01-04T01:29:22.003Z,2.20
2023-01-04T01:31:50.000Z,2.20
2023-01-04T01:34:18.564Z,2.10
2023-01-04T01:36:46.524Z,2.20
2023-01-04T01:39:16.305Z,2.40
2023-01-04T01:41:44.285Z,2.10
2023-01-04T01:44:45.778Z,2.20
2023-01-04T01:47:16.394Z,2.40
2023-01-04T01:49:48.209Z,2.00
2023-01-04T01:52:19.020Z,2.50
2023-01-04T01:54:53.284Z,2.10
2023-01-04T01:57:26.174Z,2.10
2023-01-04T01:59:57.395Z,2.00
2023-01-04T02:02:26.323Z,2.20
2023-01-04T02:04:56.575Z,2.10
2023-01-04T02:07:28.658Z,2.10
2023-01-04T02:09:59.338Z,2.20
2023-01-04T02:12:27.709Z,2.10
2023-01-04T02:14:55.823Z,2.20
2023-01-04T02:17:33.416Z,2.10
2023-01-04T02:20:32.647Z,2.00
2023-01-04T02:23:34.686Z,2.10
2023-01-04T02:26:34.217Z,2.30
2023-01-04T02:29:34.342Z,2.30
2023-01-04T02:32:07.315Z,2.20
2023-01-04T02:34:44.933Z,2.10
2023-01-04T02:37:20.155Z,2.20
2023-01-04T02:39:57.022Z,1.90
2023-01-04T02:42:47.642Z,2.00
2023-01-04T02:45:18.545Z,2.20
2023-01-04T02:48:05.995Z,2.00
2023-01-04T02:50:39.763Z,1.80
2023-01-04T02:53:12.379Z,2.00
2023-01-04T02:55:50.120Z,2.00
2023-01-04T02:58:32.866Z,2.00
2023-01-04T03:01:25.891Z,2.10
2023-01-04T03:04:22.966Z,2.00
2023-01-04T03:06:57.752Z,1.90
2023-01-04T03:09:30.457Z,1.90
2023-01-04T03:12:21.662Z,2.00
2023-01-04T03:14:53.001Z,2.00
2023-01-04T03:17:24.137Z,2.00
2023-01-04T03:19:56.561Z,2.00
2023-01-04T03:22:48.717Z,1.90
2023-01-04T03:25:37.254Z,2.00
2023-01-04T03:28:24.228Z,2.30
2023-01-04T03:31:14.907Z,2.00
2023-01-04T03:34:01.965Z,2.00
2023-01-04T03:36:46.477Z,2.10
2023-01-04T03:39:41.239Z,2.20
2023-01-04T03:42:37.917Z,2.30
2023-01-04T03:45:32.564Z,2.30
2023-01-04T03:48:24.897Z,2.10
2023-01-04T03:50:58.674Z,2.20
2023-01-04T03:53:29.707Z,2.10
2023-01-04T03:56:00.011Z,2.30
2023-01-04T03:58:28.494Z,2.20
2023-01-04T04:01:03.322Z,2.20
2023-01-04T04:03:50.417Z,2.20
2023-01-04T04:06:36.180Z,2.10
2023-01-04T04:09:05.741Z,2.40
2023-01-04T04:11:34.176Z,2.30
2023-01-04T04:14:02.592Z,2.30
2023-01-04T04:16:30.887Z,2.30
2023-01-04T04:19:01.930Z,2.30
2023-01-04T04:21:34.644Z,2.70
2023-01-04T04:24:02.830Z,2.40
2023-01-04T04:26:32.264Z,2.60
2023-01-04T04:29:00.264Z,2.40
2023-01-04T04:31:28.828Z,2.30
2023-01-04T04:33:56.751Z,2.60
2023-01-04T04:36:25.650Z,2.40
2023-01-04T04:38:53.609Z,2.50
2023-01-04T04:41:39.249Z,2.70
2023-01-04T04:44:10.062Z,2.40
2023-01-04T04:46:39.209Z,2.40
2023-01-04T04:49:07.471Z,2.50
2023-01-04T04:51:36.070Z,2.50
2023-01-04T04:54:04.711Z,2.50
2023-01-04T04:56:34.766Z,2.70
2023-01-04T04:59:02.628Z,2.50
2023-01-04T05:01:32.374Z,2.50
2023-01-04T05:04:00.832Z,2.60
2023-01-04T05:06:29.497Z,2.50
2023-01-04T05:08:57.770Z,2.50
2023-01-04T05:11:40.409Z,2.60
2023-01-04T05:14:08.872Z,2.90
2023-01-04T05:16:38.264Z,2.80
2023-01-04T05:19:06.805Z,2.60
2023-01-04T05:21:34.803Z,2.60
2023-01-04T05:24:03.537Z,2.50
2023-01-04T05:26:31.630Z,2.70
2023-01-04T05:28:59.579Z,2.80
2023-01-04T05:31:26.738Z,2.90
2023-01-04T05:33:58.698Z,2.90
2023-01-04T05:36:27.773Z,2.90
2023-01-04T05:38:55.775Z,2.60
2023-01-04T05:41:41.618Z,2.70
2023-01-04T05:44:09.626Z,2.90
2023-01-04T05:46:37.598Z,2.80
2023-01-04T05:49:07.713Z,2.70
2023-01-04T05:51:36.864Z,2.90
2023-01-04T05:54:05.506Z,2.60
2023-01-04T05:56:34.078Z,2.60
2023-01-04T05:59:02.031Z,2.80
2023-01-04T06:01:30.962Z,2.90
2023-01-04T06:03:59.262Z,3.10
2023-01-04T06:06:28.493Z,3.00
2023-01-04T06:08:57.732Z,3.00
2023-01-04T06:11:27.954Z,2.80
2023-01-04T06:13:56.623Z,2.80
2023-01-04T06:16:25.018Z,2.80
2023-01-04T06:18:53.256Z,3.10
2023-01-04T06:21:22.307Z,2.80
2023-01-04T06:23:52.858Z,2.90
2023-01-04T06:26:21.865Z,3.00
2023-01-04T06:28:49.776Z,3.20
2023-01-04T06:31:18.044Z,3.00
2023-01-04T06:33:45.965Z,2.90
2023-01-04T06:36:19.428Z,3.20
2023-01-04T06:38:49.077Z,3.20
2023-01-04T06:41:18.620Z,3.20
2023-01-04T06:43:48.225Z,2.90
2023-01-04T06:46:16.934Z,2.90
2023-01-04T06:48:44.906Z,2.90
2023-01-04T06:51:13.797Z,3.10
2023-01-04T06:53:42.623Z,3.20
2023-01-04T06:56:10.598Z,3.00
2023-01-04T06:58:40.031Z,3.40
2023-01-04T07:01:08.779Z,3.20
2023-01-04T07:03:37.059Z,3.00
2023-01-04T07:06:07.052Z,3.20
2023-01-04T07:08:35.769Z,3.20
2023-01-04T07:11:04.176Z,3.10
2023-01-04T07:13:32.137Z,3.20
2023-01-04T07:16:02.772Z,3.10
2023-01-04T07:18:31.153Z,3.20
2023-01-04T07:21:02.455Z,3.30
2023-01-04T07:23:30.703Z,3.00
2023-01-04T07:26:02.644Z,3.40
2023-01-04T07:28:48.814Z,3.30
2023-01-04T07:31:19.244Z,3.40
2023-01-04T07:33:51.172Z,3.30
2023-01-04T07:36:20.259Z,3.20
2023-01-04T07:38:48.230Z,3.30
2023-01-04T07:41:16.425Z,3.20
2023-01-04T07:43:44.321Z,3.10
2023-01-04T07:46:12.806Z,3.40
2023-01-04T07:48:42.279Z,3.40
2023-01-04T07:51:10.314Z,3.30
2023-01-04T07:53:38.647Z,3.40
2023-01-04T07:56:07.411Z,3.40
2023-01-04T07:58:36.118Z,3.50
2023-01-04T08:01:08.659Z,3.30
2023-01-04T08:03:37.693Z,3.60
2023-01-04T08:06:08.903Z,3.30
2023-01-04T08:08:37.571Z,3.60
2023-01-04T08:11:08.057Z,3.80
2023-01-04T08:13:36.798Z,3.40
2023-01-04T08:16:05.321Z,3.70
2023-01-04T08:18:33.376Z,3.60
2023-01-04T08:21:07.669Z,3.60
2023-01-04T08:23:37.222Z,3.60
2023-01-04T08:26:06.061Z,3.60
2023-01-04T08:28:34.428Z,3.70
2023-01-04T08:31:07.045Z,3.70
2023-01-04T08:33:36.592Z,3.80
2023-01-04T08:36:10.858Z,3.50
2023-01-04T08:41:56.803Z,3.60
2023-01-04T08:44:16.161Z,3.60
2023-01-04T08:46:44.314Z,3.70
2023-01-04T08:49:12.457Z,4.00
2023-01-04T08:51:42.503Z,3.80
2023-01-04T08:54:11.122Z,3.90
2023-01-04T08:56:39.848Z,4.30
2023-01-04T08:59:08.774Z,4.20
2023-01-04T09:01:37.099Z,4.30
2023-01-04T09:04:05.266Z,4.30
2023-01-04T09:06:34.287Z,4.30
2023-01-04T09:09:05.044Z,4.40
2023-01-04T09:11:33.507Z,4.30
2023-01-04T09:14:07.865Z,4.50
2023-01-04T09:16:37.287Z,4.90
2023-01-04T09:19:06.316Z,4.70
2023-01-04T09:21:34.567Z,5.00
2023-01-04T09:24:06.015Z,5.10
2023-01-04T09:26:34.512Z,5.10
2023-01-04T09:29:03.903Z,5.20
2023-01-04T09:31:34.174Z,5.20
2023-01-04T09:34:14.207Z,5.30
2023-01-04T09:36:45.182Z,5.10
2023-01-04T09:39:21.542Z,5.30
2023-01-04T09:41:56.616Z,5.20
2023-01-04T09:45:12.069Z,5.50
2023-01-04T09:47:31.218Z,5.30
2023-01-04T09:50:04.476Z,5.60
2023-01-04T09:52:45.201Z,5.70
2023-01-04T09:55:37.395Z,5.80
2023-01-04T09:58:14.877Z,5.90
2023-01-04T10:00:48.156Z,6.00
2023-01-04T10:03:22.008Z,6.20
2023-01-04T10:05:50.911Z,6.50
2023-01-04T10:08:21.021Z,6.80
2023-01-04T10:10:57.673Z,6.70
2023-01-04T10:14:15.783Z,6.60
2023-01-04T10:17:14.222Z,6.70
2023-01-04T10:22:53.439Z,6.90
2023-01-04T10:25:32.218Z,7.00
2023-01-04T10:28:23.060Z,7.20
2023-01-04T10:31:01.063Z,7.10
2023-01-04T10:33:51.389Z,7.10
2023-01-04T10:36:21.616Z,7.00
2023-01-04T10:38:56.944Z,6.90
2023-01-04T10:41:27.601Z,7.00
2023-01-04T10:44:13.704Z,7.50
2023-01-04T10:46:52.690Z,7.40
2023-01-04T10:49:29.098Z,7.30
2023-01-04T10:52:13.104Z,7.60
2023-01-04T10:54:46.235Z,7.80
2023-01-04T10:57:18.931Z,7.80
2023-01-04T10:59:53.501Z,7.80
2023-01-04T11:02:29.067Z,7.70
2023-01-04T11:05:05.109Z,7.50
2023-01-04T11:07:40.953Z,7.60
2023-01-04T11:10:16.075Z,7.70
2023-01-04T11:12:45.800Z,7.60
2023-01-04T11:15:15.269Z,7.70
2023-01-04T11:17:44.354Z,7.70
2023-01-04T11:20:13.404Z,7.90
2023-01-04T11:22:47.106Z,7.80
2023-01-04T11:25:36.538Z,7.80
2023-01-04T11:28:16.250Z,7.60
2023-01-04T11:30:58.031Z,7.80
2023-01-04T11:33:26.895Z,7.80
2023-01-04T11:35:59.682Z,7.60
2023-01-04T11:38:30.143Z,8.00
2023-01-04T11:41:00.943Z,7.80
2023-01-04T11:43:30.612Z,7.90
2023-01-04T11:46:05.750Z,7.70
2023-01-04T11:48:41.027Z,7.80
2023-01-04T11:51:19.339Z,7.80
2023-01-04T11:53:57.404Z,7.70
2023-01-04T11:56:27.400Z,7.70
2023-01-04T11:59:11.808Z,7.80
2023-01-04T12:01:45.285Z,7.80
2023-01-04T12:04:16.527Z,7.60
2023-01-04T12:06:51.457Z,7.70
2023-01-04T12:09:21.011Z,7.80
2023-01-04T12:11:53.541Z,7.70
2023-01-04T12:14:27.093Z,7.80
2023-01-04T12:17:06.279Z,7.70
2023-01-04T12:19:37.271Z,7.80
2023-01-04T12:22:22.261Z,7.80
2023-01-04T12:24:56.840Z,7.70
2023-01-04T12:27:28.913Z,7.80
2023-01-04T12:30:02.447Z,7.80
2023-01-04T12:32:46.462Z,7.80
2023-01-04T12:36:02.493Z,7.90
2023-01-04T12:39:03.566Z,7.90
2023-01-04T12:42:15.628Z,7.90
2023-01-04T12:45:22.404Z,7.80
2023-01-04T12:48:11.682Z,8.00
2023-01-04T12:51:46.844Z,7.90
2023-01-04T12:54:32.165Z,7.90
2023-01-04T12:57:38.047Z,7.90
2023-01-04T13:00:09.437Z,7.80
2023-01-04T13:02:44.733Z,7.90
2023-01-04T13:08:26.123Z,8.20
2023-01-04T13:10:56.262Z,8.10
2023-01-04T13:13:33.843Z,8.00
2023-01-04T13:16:14.218Z,8.00
2023-01-04T13:18:44.311Z,8.20
2023-01-04T13:21:17.072Z,7.90
2023-01-04T13:23:50.828Z,8.00
2023-01-04T13:26:37.875Z,8.00
2023-01-04T13:29:13.974Z,8.00
2023-01-04T13:31:56.577Z,8.00
2023-01-04T13:34:28.783Z,8.10
2023-01-04T13:37:09.471Z,8.20
2023-01-04T13:39:39.544Z,8.20
2023-01-04T13:42:13.024Z,8.40
2023-01-04T13:45:19.722Z,8.30
2023-01-04T13:47:51.443Z,8.30
2023-01-04T13:50:28.967Z,8.40
2023-01-04T13:53:14.019Z,8.40
2023-01-04T13:55:42.011Z,8.40
2023-01-04T13:58:19.296Z,8.30
2023-01-04T14:00:51.737Z,8.30
2023-01-04T14:03:33.260Z,8.40
2023-01-04T14:06:14.474Z,8.30
2023-01-04T14:08:51.552Z,8.20
2023-01-04T14:11:42.314Z,8.20
2023-01-04T14:14:33.523Z,8.20
2023-01-04T14:17:19.561Z,8.30
2023-01-04T14:19:53.572Z,8.30
2023-01-04T14:22:50.833Z,8.30
2023-01-04T14:25:45.086Z,8.40
2023-01-04T14:28:49.684Z,8.50
2023-01-04T14:31:39.126Z,8.30
2023-01-04T14:34:13.030Z,8.40
2023-01-04T14:36:43.193Z,8.30
2023-01-04T14:39:28.214Z,8.30
2023-01-04T14:42:02.360Z,8.20
2023-01-04T14:44:38.733Z,8.40
2023-01-04T14:47:13.629Z,8.30
2023-01-04T14:49:42.303Z,8.20
2023-01-04T14:52:16.174Z,8.10
2023-01-04T14:54:45.187Z,8.30
2023-01-04T14:57:14.569Z,8.40
2023-01-04T14:59:44.117Z,8.30
2023-01-04T15:02:13.584Z,8.30
2023-01-04T15:04:41.701Z,8.20
2023-01-04T15:07:33.772Z,8.20
2023-01-04T15:10:01.819Z,8.20
2023-01-04T15:12:31.150Z,8.20
2023-01-04T15:14:59.159Z,8.20
2023-01-04T15:17:27.260Z,8.10
2023-01-04T15:19:55.913Z,8.00
2023-01-04T15:22:23.898Z,8.00
2023-01-04T15:24:52.264Z,8.00
2023-01-04T15:27:23.315Z,8.10
2023-01-04T15:29:54.978Z,7.80
2023-01-04T15:32:23.084Z,8.00
2023-01-04T15:34:52.089Z,8.00
2023-01-04T15:37:23.935Z,7.90
2023-01-04T15:39:56.731Z,8.00
2023-01-04T15:42:45.803Z,8.00
2023-01-04T15:45:15.340Z,7.90
2023-01-04T15:47:43.631Z,7.90
2023-01-04T15:50:11.922Z,8.00
2023-01-04T15:52:40.705Z,7.90
2023-01-04T15:55:09.885Z,7.70
2023-01-04T15:57:41.947Z,7.90
2023-01-04T16:00:13.348Z,7.80
2023-01-04T16:02:42.894Z,7.70
2023-01-04T16:05:11.202Z,7.80
2023-01-04T16:07:39.239Z,7.70
2023-01-04T16:10:09.416Z,7.80
2023-01-04T16:12:49.873Z,7.80
2023-01-04T16:15:23.368Z,8.00
2023-01-04T16:17:54.070Z,7.90
2023-01-04T16:20:22.647Z,7.90
2023-01-04T16:22:51.222Z,8.00
2023-01-04T16:25:20.702Z,8.10
2023-01-04T16:27:49.034Z,8.10
2023-01-04T16:30:18.194Z,8.20
2023-01-04T16:32:46.204Z,8.30
2023-01-04T16:35:15.852Z,8.30
2023-01-04T16:37:43.830Z,8.30
2023-01-04T16:40:13.022Z,8.40
2023-01-04T16:42:41.539Z,8.30
2023-01-04T16:45:10.968Z,8.50
2023-01-04T16:47:41.004Z,8.40
2023-01-04T16:50:10.012Z,8.50
2023-01-04T16:52:39.951Z,8.40
2023-01-04T16:55:09.239Z,8.50
2023-01-04T16:57:37.787Z,8.50
2023-01-04T17:00:06.997Z,8.40
2023-01-04T17:02:35.289Z,8.50
2023-01-04T17:05:04.647Z,8.70
2023-01-04T17:07:33.539Z,8.50
2023-01-04T17:10:02.980Z,8.60
2023-01-04T17:12:48.398Z,8.40
2023-01-04T17:18:06.068Z,8.60
2023-01-04T17:20:34.177Z,8.50
2023-01-04T17:23:02.349Z,8.70
2023-01-04T17:25:32.350Z,8.70
2023-01-04T17:28:01.935Z,8.50
2023-01-04T17:30:30.100Z,8.60
2023-01-04T17:32:58.530Z,8.60
2023-01-04T17:35:26.664Z,8.70
2023-01-04T17:37:55.077Z,8.70
2023-01-04T17:40:23.769Z,8.70
2023-01-04T17:42:53.815Z,8.70
2023-01-04T17:45:24.379Z,8.60
2023-01-04T17:47:53.915Z,8.70
2023-01-04T17:50:24.249Z,8.70
2023-01-04T17:52:52.773Z,8.70
2023-01-04T17:55:22.774Z,8.60
2023-01-04T17:57:52.012Z,8.70
2023-01-04T18:00:21.888Z,8.90
2023-01-04T18:02:50.681Z,8.80
2023-01-04T18:05:18.867Z,8.70
2023-01-04T18:07:46.861Z,8.60
2023-01-04T18:10:26.771Z,8.60
2023-01-04T18:13:03.212Z,8.60
2023-01-04T18:15:36.225Z,8.60
2023-01-04T18:18:11.918Z,8.80
2023-01-04T18:20:41.065Z,8.70
2023-01-04T18:23:18.986Z,8.70
2023-01-04T18:25:52.468Z,8.60
2023-01-04T18:28:21.481Z,8.60
2023-01-04T18:30:51.336Z,8.60
2023-01-04T18:33:19.313Z,8.60
2023-01-04T18:35:47.529Z,8.70
2023-01-04T18:38:16.132Z,8.60
2023-01-04T18:40:44.191Z,8.60
2023-01-04T18:43:13.608Z,8.60
2023-01-04T18:45:41.967Z,8.70
2023-01-04T18:48:11.551Z,8.80
2023-01-04T18:50:39.620Z,8.70
2023-01-04T18:53:08.953Z,8.70
2023-01-04T18:55:39.265Z,8.70
2023-01-04T18:58:08.485Z,8.80
2023-01-04T19:00:36.633Z,8.80
2023-01-04T19:03:04.904Z,8.80
2023-01-04T19:05:34.686Z,8.90
2023-01-04T19:08:02.713Z,8.60
2023-01-04T19:10:31.158Z,8.80
2023-01-04T19:13:00.924Z,8.70
2023-01-04T19:15:29.520Z,8.80
2023-01-04T19:17:59.439Z,8.90
2023-01-04T19:20:28.557Z,8.80
2023-01-04T19:22:57.947Z,8.80
2023-01-04T19:25:28.658Z,8.70
2023-01-04T19:28:00.205Z,8.70
2023-01-04T19:30:28.788Z,9.00
2023-01-04T19:32:57.188Z,8.90
2023-01-04T19:35:25.551Z,9.00
2023-01-04T19:37:53.982Z,8.80
2023-01-04T19:40:23.498Z,8.80
2023-01-04T19:42:51.498Z,9.00
2023-01-04T19:45:19.982Z,9.00
2023-01-04T19:47:50.942Z,9.00
2023-01-04T19:50:22.841Z,8.90
2023-01-04T19:52:54.739Z,9.00
2023-01-04T19:55:30.728Z,9.00
2023-01-04T19:57:59.624Z,8.90
2023-01-04T20:00:27.758Z,8.90
2023-01-04T20:02:57.728Z,9.10
2023-01-04T20:05:29.565Z,9.00
2023-01-04T20:08:00.318Z,9.00
2023-01-04T20:10:32.593Z,9.00
2023-01-04T20:13:03.379Z,9.10
2023-01-04T20:15:33.235Z,9.10
2023-01-04T20:18:01.329Z,9.20
2023-01-04T20:20:29.720Z,9.10
2023-01-04T20:22:57.977Z,9.20
2023-01-04T20:25:26.599Z,9.20
2023-01-04T20:27:55.899Z,9.30
2023-01-04T20:30:24.345Z,9.30
2023-01-04T20:32:52.304Z,9.20
2023-01-04T20:35:20.946Z,9.20
2023-01-04T20:37:53.959Z,9.20
2023-01-04T20:40:22.945Z,9.30
2023-01-04T20:43:08.648Z,9.40
2023-01-04T20:45:42.300Z,9.40
2023-01-04T20:48:12.376Z,9.30
2023-01-04T20:50:40.993Z,9.40
2023-01-04T20:53:09.757Z,9.40
2023-01-04T20:55:40.227Z,9.50
2023-01-04T20:58:09.426Z,9.40
2023-01-04T21:00:42.764Z,9.50
2023-01-04T21:03:13.330Z,9.60
2023-01-04T21:05:43.536Z,9.60
2023-01-04T21:08:12.466Z,9.50
2023-01-04T21:10:42.529Z,9.50
2023-01-04T21:13:11.818Z,9.40
2023-01-04T21:15:42.720Z,9.50
2023-01-04T21:18:13.032Z,9.40
2023-01-04T21:20:42.057Z,9.60
2023-01-04T21:23:10.364Z,9.50
2023-01-04T21:25:41.167Z,9.70
2023-01-04T21:28:10.263Z,9.60
2023-01-04T21:30:42.014Z,9.60
2023-01-04T21:33:11.574Z,9.70
2023-01-04T21:35:41.151Z,9.70
2023-01-04T21:38:10.417Z,9.60
2023-01-04T21:40:39.816Z,9.60
2023-01-04T21:43:07.840Z,9.70
2023-01-04T21:45:41.082Z,9.60
2023-01-04T21:48:09.621Z,9.70
2023-01-04T21:50:38.276Z,9.70
2023-01-04T21:53:06.557Z,9.60
2023-01-04T21:55:35.319Z,9.50
2023-01-04T21:58:03.588Z,9.50
2023-01-04T22:00:32.137Z,9.60
2023-01-04T22:03:01.498Z,9.60
2023-01-04T22:05:33.181Z,9.60
2023-01-04T22:08:01.313Z,9.50
2023-01-04T22:10:29.315Z,9.50
2023-01-04T22:12:57.403Z,9.40
2023-01-04T22:15:25.857Z,9.40
2023-01-04T22:17:55.169Z,9.40
2023-01-04T22:20:24.592Z,9.50
2023-01-04T22:22:53.045Z,9.40
2023-01-04T22:25:22.219Z,9.50
2023-01-04T22:27:50.630Z,9.30
2023-01-04T22:30:19.855Z,9.30
2023-01-04T22:32:49.460Z,9.40
2023-01-04T22:35:19.117Z,9.30
2023-01-04T22:37:48.689Z,9.40
2023-01-04T22:40:17.411Z,9.40
2023-01-04T22:42:45.536Z,9.40
2023-01-04T22:45:16.775Z,9.40
2023-01-04T22:47:44.858Z,9.40
2023-01-04T22:50:12.954Z,9.30
2023-01-04T22:52:44.569Z,9.40
2023-01-04T22:55:17.104Z,9.40
2023-01-04T22:57:45.613Z,9.40
2023-01-04T23:00:16.882Z,9.40
2023-01-04T23:02:45.275Z,9.50
2023-01-04T23:05:13.788Z,9.50
2023-01-04T23:07:41.890Z,9.50
2023-01-04T23:10:10.746Z,9.50
2023-01-04T23:12:40.103Z,9.50
2023-01-04T23:15:09.328Z,9.60
2023-01-04T23:17:37.379Z,9.40
2023-01-04T23:20:10.262Z,9.50
2023-01-04T23:22:38.877Z,9.50
2023-01-04T23:25:07.957Z,9.40
2023-01-04T23:27:36.010Z,9.30
2023-01-04T23:30:06.561Z,9.30
2023-01-04T23:32:34.546Z,9.30
2023-01-04T23:35:02.957Z,9.30
2023-01-04T23:37:32.847Z,9.30
2023-01-04T23:40:00.916Z,9.20
2023-01-04T23:42:28.875Z,9.20
2023-01-04T23:44:57.098Z,9.30
2023-01-04T23:47:28.100Z,9.20
2023-01-04T23:49:56.047Z,9.30
2023-01-04T23:52:24.163Z,9.30
2023-01-04T23:54:52.123Z,9.20
2023-01-04T23:57:20.117Z,9.20
2023-01-04T23:59:49.197Z,9.20
